createdAt,value
2023-08-12T00:04:16.545Z,69.87
2023-08-12T00:09:19.384Z,70.39
2023-08-12T00:14:22.195Z,69.84
2023-08-12T00:19:28.740Z,69.90
2023-08-12T00:24:31.783Z,69.45
2023-08-12T00:29:34.569Z,69.81
2023-08-12T00:34:37.755Z,69.53
2023-08-12T00:39:40.642Z,69.82
2023-08-12T00:44:43.468Z,69.90
2023-08-12T00:49:46.900Z,70.19
2023-08-12T00:54:49.802Z,70.23
2023-08-12T00:59:52.855Z,70.43
2023-08-12T01:04:55.662Z,70.60
2023-08-12T01:09:58.517Z,70.74
2023-08-12T01:15:18.397Z,70.95
2023-08-12T01:20:28.425Z,70.98
2023-08-12T01:25:31.155Z,71.32
2023-08-12T01:30:38.995Z,71.33
2023-08-12T01:35:50.475Z,71.17
2023-08-12T01:40:53.685Z,71.30
2023-08-12T01:45:56.704Z,71.59
2023-08-12T01:50:59.961Z,71.59
2023-08-12T01:56:02.747Z,71.42
2023-08-12T02:01:05.499Z,71.31
2023-08-12T02:06:08.362Z,71.42
2023-08-12T02:11:11.548Z,71.37
2023-08-12T02:16:14.311Z,71.53
2023-08-12T02:21:17.717Z,71.73
2023-08-12T02:26:21.832Z,71.99
2023-08-12T02:31:24.649Z,71.85
2023-08-12T02:36:28.067Z,72.22
2023-08-12T02:41:30.888Z,72.19
2023-08-12T02:46:33.710Z,72.22
2023-08-12T02:51:37.434Z,72.29
2023-08-12T02:56:41.317Z,72.44
2023-08-12T03:01:44.164Z,72.67
2023-08-12T03:06:47.477Z,72.87
2023-08-12T03:11:51.228Z,73.31
2023-08-12T03:16:54.065Z,73.16
2023-08-12T03:21:56.870Z,73.27
2023-08-12T03:26:59.691Z,73.34
2023-08-12T03:32:02.584Z,73.33
2023-08-12T03:37:05.634Z,73.38
2023-08-12T03:42:08.479Z,73.30
2023-08-12T03:47:12.251Z,73.88
2023-08-12T03:52:15.546Z,73.88
2023-08-12T03:57:18.290Z,73.92
2023-08-12T04:02:21.125Z,73.94
2023-08-12T04:07:24.011Z,73.98
2023-08-12T04:12:26.833Z,74.00
2023-08-12T04:17:29.596Z,74.12
2023-08-12T04:22:32.417Z,74.21
2023-08-12T04:27:35.578Z,74.31
2023-08-12T04:32:38.401Z,74.32
2023-08-12T04:37:41.618Z,74.19
2023-08-12T04:42:44.342Z,73.74
2023-08-12T04:47:47.319Z,73.82
2023-08-12T04:52:51.270Z,73.37
2023-08-12T04:57:55.137Z,73.44
2023-08-12T05:02:58.103Z,73.39
2023-08-12T05:08:01.413Z,73.62
2023-08-12T05:13:04.468Z,73.78
2023-08-12T05:18:07.623Z,73.62
2023-08-12T05:23:10.524Z,73.71
2023-08-12T05:28:13.323Z,73.27
2023-08-12T05:33:16.422Z,73.02
2023-08-12T05:38:19.291Z,72.77
2023-08-12T05:43:22.097Z,72.70
2023-08-12T05:48:25.213Z,71.53
2023-08-12T05:53:28.070Z,71.46
2023-08-12T05:58:30.853Z,71.38
2023-08-12T06:03:33.661Z,71.30
2023-08-12T06:08:36.913Z,71.33
2023-08-12T06:13:39.685Z,70.82
2023-08-12T06:18:42.438Z,70.27
2023-08-12T06:23:45.390Z,69.59
2023-08-12T06:28:48.115Z,69.38
2023-08-12T06:33:50.867Z,68.82
2023-08-12T06:38:54.158Z,68.52
2023-08-12T06:43:57.399Z,67.65
2023-08-12T06:49:00.761Z,66.64
2023-08-12T06:54:03.787Z,65.29
2023-08-12T06:59:07.145Z,64.08
2023-08-12T07:04:10.018Z,63.15
2023-08-12T07:09:13.033Z,62.44
2023-08-12T07:14:17.175Z,61.83
2023-08-12T07:19:20.412Z,60.84
2023-08-12T07:24:23.962Z,60.92
2023-08-12T07:29:27.243Z,60.31
2023-08-12T07:34:31.500Z,58.24
2023-08-12T07:39:35.168Z,57.33
2023-08-12T07:44:38.057Z,56.63
2023-08-12T07:49:42.874Z,55.18
2023-08-12T07:54:45.995Z,54.66
2023-08-12T07:59:50.388Z,53.71
2023-08-12T08:04:53.338Z,53.18
2023-08-12T08:09:59.394Z,51.56
2023-08-12T08:15:04.358Z,51.01
2023-08-12T08:20:08.025Z,49.34
2023-08-12T08:25:11.526Z,48.81
2023-08-12T08:30:14.570Z,47.74
2023-08-12T08:35:17.741Z,47.85
2023-08-12T08:40:21.873Z,46.87
2023-08-12T08:45:26.706Z,45.26
2023-08-12T08:50:33.534Z,44.89
2023-08-12T08:55:38.674Z,43.91
2023-08-12T09:00:42.724Z,43.15
2023-08-12T09:05:54.024Z,42.32
2023-08-12T09:10:58.540Z,41.86
2023-08-12T09:16:02.389Z,41.60
2023-08-12T09:21:06.743Z,40.86
2023-08-12T09:26:19.217Z,39.61
2023-08-12T09:31:27.957Z,39.46
2023-08-12T09:36:32.222Z,39.17
2023-08-12T09:41:36.873Z,38.39
2023-08-12T09:46:40.211Z,38.46
2023-08-12T09:51:45.952Z,37.56
2023-08-12T09:56:50.463Z,38.32
2023-08-12T10:01:56.915Z,37.92
2023-08-12T10:07:01.743Z,36.30
2023-08-12T10:12:06.911Z,36.49
2023-08-12T10:17:11.009Z,35.74
2023-08-12T10:22:15.985Z,35.26
2023-08-12T10:27:19.805Z,35.03
2023-08-12T10:32:22.967Z,34.82
2023-08-12T10:37:27.672Z,34.45
2023-08-12T10:42:48.251Z,34.55
2023-08-12T10:48:00.836Z,33.90
2023-08-12T10:53:33.144Z,34.24
2023-08-12T10:58:45.625Z,33.66
2023-08-12T11:03:51.793Z,32.48
2023-08-12T11:08:55.049Z,32.54
2023-08-12T11:13:58.420Z,32.61
2023-08-12T11:19:01.310Z,32.54
2023-08-12T11:24:05.574Z,32.54
2023-08-12T11:29:12.557Z,32.37
2023-08-12T11:34:16.928Z,32.28
2023-08-12T11:39:19.960Z,32.41
2023-08-12T11:44:24.214Z,32.08
2023-08-12T11:49:26.988Z,31.76
2023-08-12T11:54:30.269Z,31.58
2023-08-12T11:59:33.286Z,31.39
2023-08-12T12:04:36.233Z,31.77
2023-08-12T12:09:43.947Z,31.31
2023-08-12T12:14:48.218Z,30.73
2023-08-12T12:19:59.876Z,31.65
2023-08-12T12:25:11.469Z,31.17
2023-08-12T12:30:16.418Z,30.70
2023-08-12T12:35:20.063Z,30.93
2023-08-12T12:40:22.988Z,31.22
2023-08-12T12:45:29.181Z,31.20
2023-08-12T12:50:34.633Z,31.20
2023-08-12T12:55:45.627Z,30.62
2023-08-12T13:00:56.702Z,30.57
2023-08-12T13:06:08.696Z,31.10
2023-08-12T13:11:12.590Z,31.48
2023-08-12T13:16:16.094Z,31.12
2023-08-12T13:21:21.100Z,31.13
2023-08-12T13:26:27.401Z,30.45
2023-08-12T13:31:30.701Z,30.59
2023-08-12T13:36:35.683Z,30.65
2023-08-12T13:41:44.846Z,30.64
2023-08-12T13:46:47.801Z,30.27
2023-08-12T13:51:54.025Z,29.64
2023-08-12T13:57:00.798Z,29.86
2023-08-12T14:02:04.162Z,29.99
2023-08-12T14:07:07.450Z,30.09
2023-08-12T14:12:25.216Z,30.17
2023-08-12T14:17:29.196Z,30.79
2023-08-12T14:22:32.494Z,30.45
2023-08-12T14:27:35.608Z,30.38
2023-08-12T14:32:38.496Z,30.27
2023-08-12T14:37:41.424Z,29.71
2023-08-12T14:42:44.208Z,29.42
2023-08-12T14:47:48.707Z,29.77
2023-08-12T14:52:51.484Z,29.55
2023-08-12T14:57:54.239Z,29.61
2023-08-12T15:02:57.010Z,28.26
2023-08-12T15:08:01.056Z,28.75
2023-08-12T15:13:05.653Z,28.75
2023-08-12T15:18:08.584Z,29.05
2023-08-12T15:23:12.048Z,29.49
2023-08-12T15:28:14.968Z,28.54
2023-08-12T15:33:18.068Z,28.53
2023-08-12T15:38:24.989Z,28.58
2023-08-12T15:43:29.199Z,28.30
2023-08-12T15:48:32.218Z,28.25
2023-08-12T15:53:36.579Z,28.13
2023-08-12T15:58:40.338Z,27.97
2023-08-12T16:03:43.526Z,28.17
2023-08-12T16:08:56.882Z,28.23
2023-08-12T16:14:11.344Z,27.95
2023-08-12T16:19:14.857Z,27.96
2023-08-12T16:24:17.703Z,28.57
2023-08-12T16:29:20.570Z,29.11
2023-08-12T16:34:23.905Z,29.41
2023-08-12T16:39:26.669Z,30.11
2023-08-12T16:44:29.819Z,30.95
2023-08-12T16:49:32.616Z,31.28
2023-08-12T16:54:35.449Z,32.03
2023-08-12T16:59:38.298Z,32.63
2023-08-12T17:04:41.521Z,33.36
2023-08-12T17:09:47.229Z,33.33
2023-08-12T17:14:50.582Z,33.81
2023-08-12T17:19:53.355Z,33.77
2023-08-12T17:24:56.175Z,33.96
2023-08-12T17:29:59.007Z,34.16
2023-08-12T17:35:01.872Z,34.59
2023-08-12T17:40:06.871Z,34.72
2023-08-12T17:45:09.792Z,35.28
2023-08-12T17:50:13.233Z,35.63
2023-08-12T17:55:16.200Z,35.80
2023-08-12T18:00:21.414Z,37.04
2023-08-12T18:05:25.117Z,38.30
2023-08-12T18:10:28.433Z,39.12
2023-08-12T18:15:31.275Z,39.36
2023-08-12T18:20:34.141Z,39.52
2023-08-12T18:25:36.955Z,40.02
2023-08-12T18:30:39.757Z,40.32
2023-08-12T18:35:42.601Z,41.04
2023-08-12T18:40:45.365Z,42.01
2023-08-12T18:45:48.109Z,43.17
2023-08-12T18:50:50.931Z,44.12
2023-08-12T18:55:54.138Z,45.17
2023-08-12T19:00:57.008Z,45.49
2023-08-12T19:06:01.055Z,46.12
2023-08-12T19:11:04.460Z,46.73
2023-08-12T19:16:07.270Z,47.15
2023-08-12T19:21:10.141Z,46.63
2023-08-12T19:26:12.873Z,46.91
2023-08-12T19:31:16.350Z,48.07
2023-08-12T19:36:19.130Z,48.04
2023-08-12T19:41:22.607Z,48.18
2023-08-12T19:46:26.108Z,48.15
2023-08-12T19:51:29.950Z,48.32
2023-08-12T19:56:36.379Z,48.64
2023-08-12T20:01:44.040Z,48.73
2023-08-12T20:06:49.142Z,48.73
2023-08-12T20:11:52.329Z,48.93
2023-08-12T20:16:55.400Z,49.31
2023-08-12T20:22:00.439Z,49.52
2023-08-12T20:27:04.092Z,49.95
2023-08-12T20:32:07.018Z,50.03
2023-08-12T20:37:09.960Z,50.43
2023-08-12T20:42:12.721Z,50.39
2023-08-12T20:47:15.926Z,50.44
2023-08-12T20:52:19.032Z,50.50
2023-08-12T20:57:21.756Z,50.66
2023-08-12T21:02:24.546Z,50.90
2023-08-12T21:07:27.659Z,50.97
2023-08-12T21:12:30.421Z,51.10
2023-08-12T21:17:33.275Z,51.25
2023-08-12T21:22:36.030Z,51.35
2023-08-12T21:27:38.791Z,51.39
2023-08-12T21:32:41.652Z,51.56
2023-08-12T21:37:44.455Z,52.33
2023-08-12T21:42:47.495Z,52.14
2023-08-12T21:47:50.388Z,52.53
2023-08-12T21:52:53.223Z,52.91
2023-08-12T21:57:56.029Z,53.15
2023-08-12T22:02:59.334Z,52.88
2023-08-12T22:08:02.705Z,52.88
2023-08-12T22:13:06.329Z,53.14
2023-08-12T22:18:09.265Z,53.51
2023-08-12T22:23:12.155Z,53.59
2023-08-12T22:28:15.096Z,53.30
2023-08-12T22:33:17.878Z,53.41
2023-08-12T22:38:21.116Z,53.53
2023-08-12T22:43:24.039Z,53.92
2023-08-12T22:48:26.930Z,53.96
2023-08-12T22:53:30.036Z,54.09
2023-08-12T22:58:32.948Z,53.93
2023-08-12T23:03:35.821Z,53.83
2023-08-12T23:08:38.592Z,53.87
2023-08-12T23:13:41.351Z,54.09
2023-08-12T23:18:44.448Z,54.08
2023-08-12T23:23:47.281Z,54.12
2023-08-12T23:28:50.089Z,54.36
2023-08-12T23:33:52.860Z,54.25
2023-08-12T23:38:55.698Z,54.51
2023-08-12T23:44:00.259Z,54.65
2023-08-12T23:49:03.085Z,54.61
2023-08-12T23:54:05.833Z,54.75
2023-08-12T23:59:08.580Z,55.01
